Time;durP1;ratioP1;P1;durP2;ratioP2;P2;SDS_P1;SDS_P2;PMS_P1;PMS_P2;Temp;Humidity;BMP_temperature;BMP_pressure;BME280_temperature;BME280_humidity;BME280_pressure;Samples;Min_cycle;Max_cycle;Signal;HPM_P1;HPM_P2
2022/06/02 00:02:20;;;;;;;10.93;7.70;;;9.90;99.90;;;;;;4971579;28;20042;-70
2022/06/02 00:04:54;;;;;;;10.77;8.50;;;9.80;99.90;;;;;;4984312;28;20141;-71
2022/06/02 00:07:45;;;;;;;11.48;8.02;;;9.80;99.90;;;;;;4968885;28;20047;-70
2022/06/02 00:10:46;;;;;;;10.18;7.78;;;9.80;99.90;;;;;;4969810;28;20130;-69
2022/06/02 00:13:41;;;;;;;10.98;8.23;;;9.70;99.90;;;;;;4980956;28;20481;-71
2022/06/02 00:16:17;;;;;;;10.38;8.00;;;9.60;99.90;;;;;;4983069;28;20078;-70
2022/06/02 00:18:54;;;;;;;9.98;8.18;;;9.60;99.90;;;;;;4973208;28;20121;-70
2022/06/02 00:21:47;;;;;;;11.30;7.63;;;9.60;99.90;;;;;;4964060;28;20042;-71
2022/06/02 00:24:17;;;;;;;13.00;8.80;;;9.50;99.90;;;;;;4973899;28;20369;-71
2022/06/02 00:26:52;;;;;;;10.35;8.10;;;9.50;99.90;;;;;;4971649;28;20408;-70
2022/06/02 00:29:24;;;;;;;12.60;8.52;;;9.50;99.90;;;;;;4971896;28;20050;-71
2022/06/02 00:31:57;;;;;;;11.15;8.93;;;9.50;99.90;;;;;;4970578;28;20035;-72
2022/06/02 00:34:33;;;;;;;12.80;9.32;;;9.50;99.90;;;;;;4973682;28;20047;-71
2022/06/02 00:37:42;;;;;;;11.80;8.40;;;9.40;99.90;;;;;;4969430;28;20523;-71
2022/06/02 00:40:10;;;;;;;10.13;9.00;;;9.40;99.90;;;;;;4968809;28;20510;-71
2022/06/02 00:42:47;;;;;;;11.85;9.45;;;9.40;99.90;;;;;;4961431;28;20043;-70
2022/06/02 00:45:16;;;;;;;11.70;9.63;;;9.30;99.90;;;;;;4970518;28;20401;-71
2022/06/02 00:47:42;;;;;;;12.82;9.75;;;9.30;99.90;;;;;;4971706;28;20078;-71
2022/06/02 00:50:33;;;;;;;13.10;9.20;;;9.30;99.90;;;;;;4970686;28;20074;-71
2022/06/02 00:53:40;;;;;;;13.02;10.68;;;9.30;99.90;;;;;;4986308;28;20061;-71
2022/06/02 00:59:52;;;;;;;12.60;10.18;;;9.20;99.90;;;;;;4964003;28;20050;-70
2022/06/02 01:02:18;;;;;;;15.10;10.38;;;9.20;99.90;;;;;;4968821;28;20043;-70
2022/06/02 01:04:43;;;;;;;10.43;8.75;;;9.30;99.90;;;;;;4974190;28;20418;-70
2022/06/02 01:07:21;;;;;;;13.52;10.48;;;9.30;99.90;;;;;;4971551;28;20035;-70
2022/06/02 01:10:25;;;;;;;13.38;10.38;;;9.20;99.90;;;;;;4969597;28;20137;-70
2022/06/02 01:13:22;;;;;;;15.55;9.82;;;9.20;99.90;;;;;;5014808;28;20053;-70
2022/06/02 01:15:47;;;;;;;15.35;10.75;;;9.20;99.90;;;;;;5007658;28;20042;-71
2022/06/02 01:18:34;;;;;;;14.88;10.80;;;9.20;99.90;;;;;;4996166;28;20058;-71
2022/06/02 01:21:46;;;;;;;17.15;10.68;;;9.20;99.90;;;;;;4985554;28;20053;-71
2022/06/02 01:24:14;;;;;;;13.27;10.75;;;9.20;99.90;;;;;;4990764;28;20050;-70
2022/06/02 01:26:58;;;;;;;;;;;9.10;99.90;;;;;;4994607;28;20091;-71
2022/06/02 01:29:29;;;;;;;18.65;11.02;;;9.10;99.90;;;;;;4959152;28;19970;-71
2022/06/02 01:32:11;;;;;;;15.10;10.88;;;9.10;99.90;;;;;;4976841;28;20131;-71
2022/06/02 01:34:55;;;;;;;15.00;11.02;;;9.10;99.90;;;;;;4976660;28;20089;-71
2022/06/02 01:37:32;;;;;;;12.30;10.25;;;9.10;99.90;;;;;;4966383;28;20435;-71
2022/06/02 01:40:08;;;;;;;11.57;9.98;;;9.00;99.90;;;;;;4973032;28;20441;-71
2022/06/02 01:42:50;;;;;;;15.30;10.15;;;9.00;99.90;;;;;;4969984;28;20416;-71
2022/06/02 01:45:19;;;;;;;16.42;10.85;;;8.90;99.90;;;;;;4978828;28;21848;-71
2022/06/02 01:47:47;;;;;;;14.75;11.43;;;8.90;99.90;;;;;;4967847;28;20431;-71
2022/06/02 01:50:38;;;;;;;13.05;10.55;;;8.90;99.90;;;;;;4973120;28;20039;-71
2022/06/02 01:53:24;;;;;;;13.82;9.55;;;8.90;99.90;;;;;;4979417;28;20137;-71
2022/06/02 01:56:25;;;;;;;13.70;10.00;;;8.90;99.90;;;;;;4967574;28;20038;-71
2022/06/02 01:59:15;;;;;;;;;;;8.80;99.90;;;;;;4968216;28;20512;-71
2022/06/02 02:01:53;;;;;;;15.50;10.52;;;8.80;99.90;;;;;;4965468;28;19922;-70
2022/06/02 02:04:30;;;;;;;16.67;10.70;;;8.80;99.90;;;;;;4972236;28;20046;-71
2022/06/02 02:07:18;;;;;;;15.18;11.13;;;8.80;99.90;;;;;;4970207;28;20049;-71
2022/06/02 02:09:54;;;;;;;16.30;10.85;;;8.80;99.90;;;;;;4969271;28;20050;-72
2022/06/02 02:12:56;;;;;;;13.80;10.80;;;8.70;99.90;;;;;;4979499;28;20039;-72
2022/06/02 02:15:33;;;;;;;16.63;10.82;;;8.70;99.90;;;;;;4990281;28;20049;-71
2022/06/02 02:18:16;;;;;;;15.75;11.13;;;8.70;99.90;;;;;;4979661;28;20039;-70
2022/06/02 02:21:00;;;;;;;13.35;10.05;;;8.70;99.90;;;;;;4972676;28;20400;-70
2022/06/02 02:23:42;;;;;;;14.88;10.52;;;8.70;99.90;;;;;;4976274;28;20054;-71
2022/06/02 02:26:26;;;;;;;15.45;10.25;;;8.70;99.90;;;;;;4975444;28;20054;-71
2022/06/02 02:29:13;;;;;;;12.93;10.20;;;8.70;99.90;;;;;;4970030;28;20206;-70
2022/06/02 02:32:15;;;;;;;12.07;9.57;;;8.60;99.90;;;;;;4973612;28;20086;-72
2022/06/02 02:34:52;;;;;;;11.90;9.00;;;8.60;99.90;;;;;;4972957;28;20043;-70
2022/06/02 02:37:31;;;;;;;13.93;9.98;;;8.60;99.90;;;;;;4984834;28;20464;-70
2022/06/02 02:40:22;;;;;;;11.85;9.68;;;8.60;99.90;;;;;;4969541;28;20062;-71
2022/06/02 02:42:57;;;;;;;14.32;9.18;;;8.60;99.90;;;;;;4976223;28;20055;-70
2022/06/02 02:45:53;;;;;;;11.55;8.65;;;8.60;99.90;;;;;;4972950;28;20126;-72
2022/06/02 02:49:00;;;;;;;11.55;8.55;;;8.60;99.90;;;;;;4969925;28;20089;-71
2022/06/02 02:51:38;;;;;;;12.77;8.68;;;8.60;99.90;;;;;;4971029;28;20528;-71
2022/06/02 02:54:21;;;;;;;13.02;8.30;;;8.60;99.90;;;;;;4978873;28;20108;-70
2022/06/02 02:56:50;;;;;;;11.52;7.63;;;8.60;99.90;;;;;;4971426;28;20130;-70
2022/06/02 02:59:35;;;;;;;11.38;8.48;;;8.60;99.90;;;;;;4967562;28;20110;-70
2022/06/02 03:02:42;;;;;;;12.18;7.95;;;8.60;99.90;;;;;;4969386;28;20035;-70
2022/06/02 03:05:26;;;;;;;10.95;7.43;;;8.70;99.90;;;;;;4964728;28;20047;-71
2022/06/02 03:07:57;;;;;;;12.02;7.28;;;8.70;99.90;;;;;;4966455;28;20493;-71
2022/06/02 03:10:35;;;;;;;10.57;7.13;;;8.70;99.90;;;;;;4980531;28;20050;-70
2022/06/02 03:13:14;;;;;;;14.95;8.15;;;8.60;99.90;;;;;;4973172;28;20047;-70
2022/06/02 03:15:45;;;;;;;10.73;7.30;;;8.60;99.90;;;;;;4968727;28;20045;-71
2022/06/02 03:18:29;;;;;;;11.60;7.40;;;8.60;99.90;;;;;;4972620;28;20536;-71
2022/06/02 03:21:22;;;;;;;10.90;7.70;;;8.90;99.90;;;;;;4971989;28;20041;-71
2022/06/02 03:24:17;;;;;;;12.80;7.50;;;8.60;99.90;;;;;;4976609;28;20137;-71
2022/06/02 03:27:18;;;;;;;14.15;8.35;;;8.60;99.90;;;;;;4974617;28;20101;-71
2022/06/02 03:30:02;;;;;;;14.25;7.93;;;8.60;99.90;;;;;;4971368;28;20042;-71
2022/06/02 03:32:56;;;;;;;11.25;8.25;;;8.60;99.90;;;;;;4967416;28;20081;-71
2022/06/02 03:35:39;;;;;;;11.30;7.75;;;8.60;99.90;;;;;;4971380;28;20049;-71
2022/06/02 03:38:33;;;;;;;15.32;8.73;;;8.60;99.90;;;;;;4967696;28;20174;-71
2022/06/02 03:41:23;;;;;;;10.90;7.00;;;8.60;99.90;;;;;;4969020;28;20047;-70
2022/06/02 03:44:00;;;;;;;;;;;8.60;99.90;;;;;;4973014;28;20051;-70
2022/06/02 03:46:56;;;;;;;10.45;7.95;;;8.60;99.90;;;;;;4964079;28;20013;-72
2022/06/02 03:49:29;;;;;;;10.45;8.43;;;8.60;99.90;;;;;;4968916;28;20421;-72
2022/06/02 03:52:25;;;;;;;14.57;8.65;;;8.60;99.90;;;;;;4969696;28;20444;-71
2022/06/02 03:55:29;;;;;;;13.50;8.60;;;8.70;99.90;;;;;;4973637;28;20401;-71
2022/06/02 03:58:10;;;;;;;13.40;8.15;;;8.70;99.90;;;;;;4970111;28;20406;-71
2022/06/02 04:00:49;;;;;;;10.88;8.05;;;8.60;99.90;;;;;;4968821;28;20097;-71
2022/06/02 04:03:35;;;;;;;11.70;7.88;;;8.60;99.90;;;;;;4965485;28;20504;-72
2022/06/02 04:06:31;;;;;;;12.02;7.57;;;8.70;99.90;;;;;;4970556;28;20097;-70
2022/06/02 04:09:12;;;;;;;10.75;7.35;;;8.70;99.90;;;;;;4971777;28;20047;-72
2022/06/02 04:14:58;;;;;;;;;;;8.80;99.90;;;;;;4966567;28;20054;-70
2022/06/02 04:17:26;;;;;;;12.93;7.75;;;8.80;99.90;;;;;;4969187;28;20332;-70
2022/06/02 04:20:35;;;;;;;8.82;7.22;;;8.90;99.90;;;;;;4982542;28;20047;-71
2022/06/02 04:23:22;;;;;;;9.90;6.85;;;8.90;99.90;;;;;;4970688;28;20038;-70
2022/06/02 04:26:12;;;;;;;8.73;6.53;;;8.90;99.90;;;;;;4972658;28;20042;-71
2022/06/02 04:29:02;;;;;;;8.35;6.10;;;8.90;99.90;;;;;;4973240;28;20039;-71
2022/06/02 04:31:44;;;;;;;8.27;5.90;;;9.00;99.90;;;;;;4980042;28;20051;-71
2022/06/02 04:34:20;;;;;;;11.65;6.60;;;9.10;99.90;;;;;;4975845;28;20043;-70
2022/06/02 04:37:05;;;;;;;10.25;6.18;;;9.10;99.90;;;;;;4980844;28;20074;-72
2022/06/02 04:39:47;;;;;;;7.47;5.65;;;9.20;99.90;;;;;;4973089;28;20051;-72
2022/06/02 04:42:50;;;;;;;7.82;5.85;;;9.30;99.90;;;;;;4969827;28;20043;-71
2022/06/02 04:45:39;;;;;;;8.00;5.25;;;9.30;99.90;;;;;;4974574;28;20106;-71
2022/06/02 04:48:16;;;;;;;8.70;5.03;;;9.40;99.90;;;;;;4992056;28;20516;-70
2022/06/02 04:51:03;;;;;;;10.80;6.03;;;9.50;99.90;;;;;;4978638;28;20047;-71
2022/06/02 04:54:00;;;;;;;10.82;5.53;;;9.60;99.90;;;;;;4974894;28;20062;-71
2022/06/02 04:56:32;;;;;;;11.07;6.15;;;9.60;99.90;;;;;;4979332;28;20086;-71
2022/06/02 04:59:39;;;;;;;8.32;5.57;;;9.70;99.90;;;;;;4975157;28;20043;-71
2022/06/02 05:02:28;;;;;;;6.53;5.32;;;9.80;99.90;;;;;;4974695;28;20039;-71
2022/06/02 05:05:11;;;;;;;;;;;9.80;99.90;;;;;;4986909;28;20057;-71
2022/06/02 05:08:12;;;;;;;7.07;4.40;;;9.90;99.90;;;;;;4971711;28;19929;-71
2022/06/02 05:10:44;;;;;;;7.78;4.47;;;10.00;99.90;;;;;;4966981;28;20039;-71
2022/06/02 05:13:12;;;;;;;8.57;4.47;;;10.10;99.90;;;;;;4975868;28;20444;-71
2022/06/02 05:16:02;;;;;;;6.35;4.28;;;10.20;99.90;;;;;;4971582;28;20493;-72
2022/06/02 05:18:53;;;;;;;4.50;3.78;;;10.40;99.90;;;;;;4976294;28;20047;-72
2022/06/02 05:21:22;;;;;;;6.80;4.10;;;10.50;99.90;;;;;;4972492;28;20577;-71
2022/06/02 05:23:54;;;;;;;6.63;3.97;;;10.60;99.90;;;;;;4981313;28;20097;-71
2022/06/02 05:26:22;;;;;;;7.13;3.88;;;10.70;99.90;;;;;;4971398;28;20470;-71
2022/06/02 05:29:09;;;;;;;11.68;4.28;;;10.80;99.90;;;;;;4987928;28;20125;-71
2022/06/02 05:32:03;;;;;;;5.60;3.97;;;10.80;99.90;;;;;;4970422;28;20044;-70
2022/06/02 05:35:04;;;;;;;5.47;3.88;;;10.90;99.90;;;;;;4974851;28;20374;-70
2022/06/02 05:38:03;;;;;;;7.80;4.55;;;10.90;99.90;;;;;;4974028;28;20101;-71
2022/06/02 05:40:39;;;;;;;5.28;3.92;;;11.00;99.90;;;;;;4974049;28;20047;-72
2022/06/02 05:43:34;;;;;;;8.07;4.65;;;11.10;99.90;;;;;;4989479;28;20131;-71
2022/06/02 05:46:18;;;;;;;11.48;4.57;;;11.20;99.90;;;;;;4970593;28;20049;-71
2022/06/02 05:48:58;;;;;;;5.63;3.95;;;11.40;99.90;;;;;;4971237;28;20039;-72
2022/06/02 05:51:42;;;;;;;9.82;3.95;;;11.50;99.90;;;;;;4974465;28;20453;-72
2022/06/02 05:54:23;;;;;;;6.30;4.40;;;11.60;99.90;;;;;;4952502;28;20461;-71
2022/06/02 05:57:04;;;;;;;5.57;4.22;;;11.70;99.90;;;;;;4989185;28;20131;-72
2022/06/02 06:00:01;;;;;;;5.50;3.97;;;11.80;99.90;;;;;;4972618;28;20070;-71
2022/06/02 06:02:54;;;;;;;7.95;4.25;;;11.90;99.90;;;;;;4974432;28;20059;-71
2022/06/02 06:05:33;;;;;;;9.38;3.60;;;12.00;99.90;;;;;;4995577;28;20128;-71
2022/06/02 06:08:05;;;;;;;6.25;3.80;;;12.10;99.90;;;;;;4984685;28;20074;-71
2022/06/02 06:10:46;;;;;;;6.35;3.30;;;12.20;99.90;;;;;;4972950;28;20146;-72
2022/06/02 06:13:23;;;;;;;5.63;3.00;;;12.60;99.90;;;;;;4972156;28;20039;-71
2022/06/02 06:15:58;;;;;;;6.20;2.72;;;13.10;99.90;;;;;;4979776;28;20047;-70
2022/06/02 06:18:30;;;;;;;7.10;2.83;;;13.40;99.90;;;;;;4974712;28;20054;-71
2022/06/02 06:21:33;;;;;;;5.93;2.72;;;13.40;99.90;;;;;;4976672;28;20050;-72
2022/06/02 06:24:17;;;;;;;4.65;2.70;;;13.40;99.90;;;;;;4969902;28;20046;-70
2022/06/02 06:26:45;;;;;;;7.47;2.80;;;13.30;99.90;;;;;;4968645;28;20480;-71
2022/06/02 06:29:26;;;;;;;9.98;3.10;;;13.30;99.90;;;;;;4977909;28;20133;-71
2022/06/02 06:32:25;;;;;;;5.25;2.67;;;13.30;99.90;;;;;;4985688;28;20492;-72
2022/06/02 06:34:59;;;;;;;5.05;3.28;;;13.30;99.90;;;;;;4977209;28;20054;-71
2022/06/02 06:37:45;;;;;;;5.68;2.50;;;13.30;99.90;;;;;;4969053;28;20079;-71
2022/06/02 06:40:43;;;;;;;7.15;2.50;;;13.40;99.90;;;;;;4974621;28;20049;-71
2022/06/02 06:43:11;;;;;;;6.25;3.05;;;13.50;99.90;;;;;;4964149;28;20503;-70
2022/06/02 06:46:02;;;;;;;7.25;2.75;;;13.60;99.90;;;;;;4971881;28;20046;-70
2022/06/02 06:48:42;;;;;;;9.00;3.20;;;13.70;99.90;;;;;;4974788;28;20575;-72
2022/06/02 06:51:35;;;;;;;13.77;3.40;;;13.80;99.90;;;;;;4978227;28;20054;-71
2022/06/02 06:54:57;;;;;;;7.13;2.78;;;14.00;99.90;;;;;;4953082;28;20050;-70
2022/06/02 06:57:34;;;;;;;5.50;2.70;;;14.10;99.90;;;;;;4970454;28;20421;-72
2022/06/02 07:00:35;;;;;;;4.93;2.83;;;14.20;99.90;;;;;;4970400;28;20066;-69
2022/06/02 07:03:19;;;;;;;6.00;2.58;;;14.40;99.90;;;;;;4983735;28;20525;-70
2022/06/02 07:05:53;;;;;;;5.93;2.47;;;14.40;99.90;;;;;;4966418;28;20093;-68
2022/06/02 07:08:29;;;;;;;6.20;2.70;;;14.30;99.90;;;;;;4967339;28;20055;-70
2022/06/02 07:12:50;;;;;;;5.20;2.05;;;14.20;99.90;;;;;;4970024;28;20050;-71
2022/06/02 07:14:20;;;;;;;5.93;2.40;;;14.30;99.90;;;;;;4967353;28;20150;-69
2022/06/02 07:16:55;;;;;;;9.05;2.53;;;14.40;99.90;;;;;;4971193;28;20077;-69
2022/06/02 07:19:29;;;;;;;5.93;2.40;;;14.30;99.90;;;;;;4970579;28;20549;-70
2022/06/02 07:22:05;;;;;;;6.18;2.60;;;14.40;99.90;;;;;;4955071;28;20569;-69
2022/06/02 07:24:45;;;;;;;7.00;2.85;;;14.50;99.90;;;;;;4969819;28;20532;-70
2022/06/02 07:27:49;;;;;;;3.78;1.90;;;14.60;99.90;;;;;;4952279;28;20043;-69
2022/06/02 07:30:32;;;;;;;6.10;1.88;;;14.50;99.90;;;;;;4968713;28;20133;-69
2022/06/02 07:33:06;;;;;;;5.70;1.88;;;14.50;99.90;;;;;;4969362;28;20463;-68
2022/06/02 07:35:41;;;;;;;4.65;1.77;;;14.40;99.90;;;;;;4970169;28;20057;-71
2022/06/02 07:38:31;;;;;;;6.22;1.80;;;14.30;99.90;;;;;;4968127;28;20046;-69
2022/06/02 07:41:21;;;;;;;6.55;1.80;;;14.50;99.90;;;;;;4970863;28;20039;-69
2022/06/02 07:44:05;;;;;;;;;;;14.50;99.90;;;;;;4970788;28;20100;-70
2022/06/02 07:46:50;;;;;;;4.00;2.00;;;14.40;99.90;;;;;;4971526;28;20002;-70
2022/06/02 07:49:49;;;;;;;4.32;2.13;;;14.40;99.90;;;;;;4966118;28;20061;-70
2022/06/02 07:52:40;;;;;;;8.48;1.92;;;14.50;99.90;;;;;;4969607;28;20117;-70
2022/06/02 07:55:40;;;;;;;5.95;1.77;;;14.50;99.90;;;;;;4970099;28;20061;-70
2022/06/02 07:58:31;;;;;;;3.47;1.90;;;14.60;99.90;;;;;;4969147;28;20101;-69
2022/06/02 08:01:12;;;;;;;4.78;1.75;;;14.70;99.90;;;;;;4971490;28;20039;-68
2022/06/02 08:03:57;;;;;;;6.50;1.90;;;14.80;99.90;;;;;;4970499;28;20085;-68
2022/06/02 08:06:45;;;;;;;4.13;2.22;;;14.90;99.90;;;;;;4971905;28;20046;-68
2022/06/02 08:09:32;;;;;;;6.87;2.30;;;15.00;99.90;;;;;;4966156;28;20055;-68
2022/06/02 08:12:10;;;;;;;4.20;1.75;;;15.00;99.90;;;;;;4970415;28;20043;-69
2022/06/02 08:15:15;;;;;;;4.87;2.00;;;14.90;99.90;;;;;;4968167;28;20058;-68
2022/06/02 08:17:47;;;;;;;3.83;1.80;;;14.90;99.90;;;;;;4968910;28;20643;-69
2022/06/02 08:20:26;;;;;;;3.35;1.98;;;14.90;99.90;;;;;;4965449;28;20039;-68
2022/06/02 08:23:04;;;;;;;4.97;1.83;;;15.10;99.90;;;;;;4968279;28;20569;-67
2022/06/02 08:25:45;;;;;;;4.82;1.80;;;15.20;99.90;;;;;;4982017;28;20039;-69
2022/06/02 08:29:01;;;;;;;5.40;1.80;;;15.20;99.90;;;;;;4968131;28;20066;-70
2022/06/02 08:31:33;;;;;;;4.05;2.20;;;15.20;99.90;;;;;;4967497;28;20047;-69
2022/06/02 08:34:21;;;;;;;6.53;1.88;;;15.10;99.90;;;;;;4965439;28;20485;-70
2022/06/02 08:37:25;;;;;;;7.18;1.88;;;15.10;99.90;;;;;;4966905;28;20050;-70
2022/06/02 08:40:18;;;;;;;4.70;1.80;;;15.10;99.90;;;;;;4967436;28;20447;-69
2022/06/02 08:43:06;;;;;;;6.95;2.58;;;15.10;99.90;;;;;;4969110;28;20057;-66
2022/06/02 08:45:40;;;;;;;4.50;2.00;;;15.20;99.90;;;;;;4969031;28;20174;-68
2022/06/02 08:48:36;;;;;;;6.75;2.33;;;15.20;99.90;;;;;;4967641;28;20062;-68
2022/06/02 08:51:16;;;;;;;8.65;2.35;;;15.30;99.90;;;;;;4970847;28;20105;-68
2022/06/02 08:54:00;;;;;;;8.10;2.45;;;15.30;99.90;;;;;;4970392;28;20564;-68
2022/06/02 08:56:28;;;;;;;6.97;2.03;;;15.20;99.90;;;;;;4952603;28;20039;-69
2022/06/02 08:59:18;;;;;;;4.82;1.80;;;15.30;99.90;;;;;;4969065;28;20097;-70
2022/06/02 09:01:55;;;;;;;4.63;1.70;;;15.60;99.90;;;;;;4968262;28;20375;-69
2022/06/02 09:04:51;;;;;;;2.53;1.50;;;15.90;99.90;;;;;;4969703;28;20059;-69
2022/06/02 09:07:23;;;;;;;5.47;1.70;;;16.20;99.90;;;;;;4969522;28;20564;-69
2022/06/02 09:10:20;;;;;;;4.28;1.70;;;16.20;99.90;;;;;;4967526;28;20059;-69
2022/06/02 09:13:04;;;;;;;7.68;2.10;;;16.30;99.90;;;;;;4970631;28;20480;-68
2022/06/02 09:15:41;;;;;;;4.75;1.67;;;16.30;99.90;;;;;;4971018;28;20419;-70
2022/06/02 09:18:09;;;;;;;2.38;1.65;;;16.50;99.90;;;;;;4971319;28;20038;-69
2022/06/02 09:20:53;;;;;;;5.97;1.90;;;16.60;99.90;;;;;;4971757;28;20079;-68
2022/06/02 09:23:36;;;;;;;5.55;1.80;;;16.80;99.90;;;;;;4975373;28;20050;-68
2022/06/02 09:26:40;;;;;;;2.35;1.67;;;16.70;99.90;;;;;;4973170;28;20061;-69
2022/06/02 09:29:41;;;;;;;6.15;1.73;;;16.60;99.90;;;;;;4973451;28;20121;-70
2022/06/02 09:32:21;;;;;;;8.13;1.90;;;16.50;99.90;;;;;;4989318;28;20078;-67
2022/06/02 09:35:02;;;;;;;4.75;1.88;;;16.60;99.90;;;;;;4972815;28;20425;-69
2022/06/02 09:37:46;;;;;;;5.55;2.00;;;16.90;99.90;;;;;;4974357;28;20567;-70
2022/06/02 09:40:30;;;;;;;4.13;1.80;;;17.10;99.90;;;;;;4971635;28;20125;-68
2022/06/02 09:43:17;;;;;;;4.35;1.77;;;17.20;99.90;;;;;;4973938;28;20539;-69
2022/06/02 09:45:44;;;;;;;5.00;2.00;;;17.10;99.90;;;;;;4974248;28;20057;-69
2022/06/02 09:48:24;;;;;;;3.20;1.77;;;17.30;99.90;;;;;;4972740;28;20126;-69
2022/06/02 09:51:14;;;;;;;5.00;1.60;;;17.40;99.90;;;;;;4973514;28;20157;-68
2022/06/02 09:54:16;;;;;;;2.50;1.52;;;17.50;99.90;;;;;;4972116;28;20564;-70
2022/06/02 10:00:19;;;;;;;6.53;1.70;;;17.90;99.90;;;;;;4968241;28;20100;-70
2022/06/02 10:03:03;;;;;;;3.08;1.67;;;17.90;99.90;;;;;;4966512;28;20042;-69
2022/06/02 10:05:54;;;;;;;7.63;1.83;;;18.00;99.90;;;;;;4971957;28;20104;-70
2022/06/02 10:08:43;;;;;;;5.40;2.08;;;17.70;99.90;;;;;;4969571;28;20062;-70
2022/06/02 10:11:21;;;;;;;8.30;1.83;;;17.80;99.90;;;;;;4970163;28;20034;-70
2022/06/02 10:14:10;;;;;;;3.38;1.67;;;17.70;99.90;;;;;;4970531;28;20053;-70
2022/06/02 10:17:13;;;;;;;5.88;1.83;;;17.70;99.90;;;;;;4969008;28;20540;-68
2022/06/02 10:19:45;;;;;;;4.47;1.77;;;17.90;99.90;;;;;;4966862;28;20039;-69
2022/06/02 10:22:23;;;;;;;6.03;2.00;;;18.00;99.90;;;;;;4972505;28;20046;-70
2022/06/02 10:25:08;;;;;;;3.83;1.48;;;18.10;99.90;;;;;;4968849;28;20394;-70
2022/06/02 10:27:49;;;;;;;4.45;1.80;;;18.20;99.90;;;;;;4952686;28;20051;-70
2022/06/02 10:30:33;;;;;;;4.78;1.63;;;18.30;99.90;;;;;;4971775;28;20051;-70
2022/06/02 10:33:25;;;;;;;5.05;1.50;;;18.10;99.80;;;;;;4968781;28;20496;-71
2022/06/02 10:36:33;;;;;;;2.70;1.45;;;17.90;99.30;;;;;;4973588;28;20051;-70
2022/06/02 10:39:28;;;;;;;5.20;1.58;;;17.70;99.90;;;;;;4985626;28;20050;-68
2022/06/02 10:42:12;;;;;;;4.40;1.40;;;18.00;98.80;;;;;;4967769;28;20047;-69
2022/06/02 10:45:15;;;;;;;3.85;1.70;;;18.40;99.90;;;;;;4967685;28;20448;-71
2022/06/02 10:47:56;;;;;;;6.90;1.58;;;18.70;97.80;;;;;;4971688;28;20092;-70
2022/06/02 10:50:40;;;;;;;5.90;2.00;;;18.60;98.40;;;;;;4971696;28;20189;-69
2022/06/02 10:53:44;;;;;;;4.65;2.08;;;18.60;98.20;;;;;;4969635;28;20449;-70
2022/06/02 10:56:44;;;;;;;5.43;1.73;;;18.80;98.10;;;;;;4966039;28;20414;-70
2022/06/02 10:59:09;;;;;;;;;;;18.90;97.40;;;;;;4979791;28;20066;-69
2022/06/02 11:02:13;;;;;;;8.07;1.80;;;19.30;99.50;;;;;;4966842;28;19930;-67
2022/06/02 11:05:14;;;;;;;5.30;2.10;;;19.40;96.50;;;;;;4963390;28;20047;-70
2022/06/02 11:07:48;;;;;;;2.70;1.55;;;19.40;97.40;;;;;;4966555;28;20043;-68
2022/06/02 11:10:30;;;;;;;5.13;1.90;;;19.80;98.10;;;;;;4963364;28;20057;-69
2022/06/02 11:13:10;;;;;;;4.30;2.00;;;20.00;97.30;;;;;;4974581;28;20051;-70
2022/06/02 11:16:13;;;;;;;5.75;2.38;;;20.00;96.50;;;;;;4970715;28;20043;-70
2022/06/02 11:19:09;;;;;;;5.32;1.80;;;20.00;97.00;;;;;;4970578;28;20046;-70
2022/06/02 11:21:50;;;;;;;4.05;1.83;;;20.10;96.60;;;;;;4966899;28;20046;-69
2022/06/02 11:24:34;;;;;;;5.10;1.80;;;20.30;95.40;;;;;;4969271;28;20425;-68
2022/06/02 11:27:02;;;;;;;3.30;1.98;;;20.20;94.10;;;;;;4968738;28;20454;-68
2022/06/02 11:29:28;;;;;;;4.35;1.85;;;19.80;93.70;;;;;;4967074;28;20405;-69
2022/06/02 11:32:38;;;;;;;3.63;1.90;;;19.40;95.40;;;;;;4964670;28;20043;-69
2022/06/02 11:35:22;;;;;;;5.97;2.15;;;19.20;95.30;;;;;;4974716;28;20559;-68
2022/06/02 11:38:17;;;;;;;4.65;1.83;;;19.00;96.90;;;;;;4972768;28;20054;-69
2022/06/02 11:41:08;;;;;;;5.43;1.92;;;19.20;96.90;;;;;;4966770;28;20137;-67
2022/06/02 11:43:58;;;;;;;5.38;1.75;;;19.40;95.70;;;;;;4967885;28;20058;-69
2022/06/02 11:46:52;;;;;;;5.03;2.00;;;19.20;97.00;;;;;;4956481;28;20047;-67
2022/06/02 11:49:43;;;;;;;7.50;2.20;;;19.00;96.40;;;;;;4955989;28;20051;-66
2022/06/02 11:52:20;;;;;;;5.70;2.05;;;18.80;96.50;;;;;;4966147;28;20150;-67
2022/06/02 11:55:20;;;;;;;5.40;1.88;;;18.70;97.40;;;;;;4967695;28;20047;-69
2022/06/02 11:57:57;;;;;;;;;;;18.60;97.10;;;;;;4966513;28;20137;-69
2022/06/02 12:00:50;;;;;;;6.60;2.00;;;18.70;97.00;;;;;;4973932;28;19926;-69
2022/06/02 12:03:48;;;;;;;2.72;2.00;;;18.90;97.50;;;;;;4973021;28;20149;-68
2022/06/02 12:06:14;;;;;;;7.72;1.90;;;19.10;97.20;;;;;;4987434;28;20054;-68
2022/06/02 12:09:02;;;;;;;4.35;1.70;;;19.30;96.70;;;;;;4982581;28;20051;-69
2022/06/02 12:11:53;;;;;;;4.38;2.17;;;19.50;97.20;;;;;;4970417;28;20133;-68
2022/06/02 12:14:46;;;;;;;6.25;1.80;;;19.90;96.90;;;;;;4969616;28;20054;-69
2022/06/02 12:17:39;;;;;;;8.60;1.98;;;20.10;95.60;;;;;;4970361;28;20047;-67
2022/06/02 12:20:47;;;;;;;5.13;1.92;;;19.90;95.10;;;;;;4970276;28;20105;-69
2022/06/02 12:23:31;;;;;;;6.63;1.92;;;19.40;95.20;;;;;;4973647;28;20066;-70
2022/06/02 12:26:19;;;;;;;3.30;1.70;;;19.10;96.60;;;;;;4975716;28;20057;-69
2022/06/02 12:29:12;;;;;;;3.75;1.80;;;19.20;97.00;;;;;;4985005;28;20065;-67
2022/06/02 12:32:01;;;;;;;3.05;1.83;;;19.40;98.30;;;;;;4966928;28;20130;-68
2022/06/02 12:34:35;;;;;;;3.25;1.80;;;19.70;96.00;;;;;;4968013;28;20058;-68
2022/06/02 12:37:13;;;;;;;3.40;1.70;;;19.90;94.60;;;;;;4971056;28;20107;-68
2022/06/02 12:39:57;;;;;;;4.63;2.10;;;19.90;95.10;;;;;;4967923;28;20454;-68
2022/06/02 12:42:54;;;;;;;5.72;1.73;;;19.90;94.90;;;;;;4965086;28;20051;-69
2022/06/02 12:45:45;;;;;;;6.75;1.90;;;19.90;95.70;;;;;;4965945;28;20109;-68
2022/06/02 12:48:18;;;;;;;3.25;1.83;;;19.90;95.70;;;;;;4968849;28;20093;-67
2022/06/02 12:51:14;;;;;;;5.22;2.03;;;20.10;94.50;;;;;;4977822;28;20058;-68
2022/06/02 12:53:45;;;;;;;3.78;1.50;;;20.10;94.50;;;;;;4968145;28;20413;-67
2022/06/02 12:56:25;;;;;;;3.35;1.83;;;20.20;95.10;;;;;;4960841;28;20079;-69
2022/06/02 12:59:11;;;;;;;12.80;2.10;;;20.10;95.40;;;;;;4973887;28;20047;-68
2022/06/02 13:02:07;;;;;;;4.68;1.70;;;20.20;93.80;;;;;;4973629;28;20477;-67
2022/06/02 13:05:15;;;;;;;4.47;1.95;;;20.30;94.50;;;;;;4977519;28;20061;-68
2022/06/02 13:07:46;;;;;;;4.53;1.80;;;20.00;93.80;;;;;;4977555;28;20063;-70
2022/06/02 13:10:15;;;;;;;6.03;1.92;;;19.80;94.80;;;;;;4975770;28;20414;-68
2022/06/02 13:13:07;;;;;;;4.43;1.65;;;19.90;94.60;;;;;;4973802;28;20464;-68
2022/06/02 13:15:57;;;;;;;3.58;1.63;;;20.30;95.30;;;;;;4982262;28;20118;-68
2022/06/02 13:18:50;;;;;;;3.08;1.55;;;20.50;93.50;;;;;;4992907;28;20054;-69
2022/06/02 13:21:37;;;;;;;6.38;1.70;;;20.50;94.90;;;;;;4985212;28;20043;-68
2022/06/02 13:24:17;;;;;;;4.72;1.95;;;20.60;93.00;;;;;;4979874;28;20435;-66
2022/06/02 13:27:04;;;;;;;3.85;1.73;;;20.60;93.10;;;;;;4979226;28;20054;-66
2022/06/02 13:29:38;;;;;;;5.20;1.73;;;20.60;92.50;;;;;;4970945;28;20051;-67
2022/06/02 13:32:07;;;;;;;7.00;2.13;;;20.60;92.30;;;;;;4965020;28;20599;-68
2022/06/02 13:35:05;;;;;;;3.53;1.65;;;20.70;93.20;;;;;;4973840;28;20039;-67
2022/06/02 13:37:46;;;;;;;3.92;1.60;;;21.20;93.50;;;;;;4974465;28;20533;-68
2022/06/02 13:40:29;;;;;;;3.78;1.50;;;22.30;94.20;;;;;;4968033;28;20039;-68
2022/06/02 13:43:28;;;;;;;6.03;1.77;;;22.30;90.60;;;;;;4972671;28;20703;-66
2022/06/02 13:46:28;;;;;;;5.88;1.80;;;22.30;88.20;;;;;;4976375;28;20050;-69
2022/06/02 13:49:09;;;;;;;3.72;1.67;;;21.70;87.20;;;;;;4964471;28;20166;-69
2022/06/02 13:51:47;;;;;;;3.20;1.50;;;21.30;88.70;;;;;;4971301;28;20447;-67
2022/06/02 13:57:31;;;;;;;7.53;2.15;;;21.10;90.20;;;;;;4968733;28;20050;-68
2022/06/02 14:00:28;;;;;;;5.47;1.80;;;21.00;90.80;;;;;;4969999;28;20057;-68
2022/06/02 14:03:04;;;;;;;3.10;1.75;;;21.30;93.10;;;;;;4969195;28;20051;-69
2022/06/02 14:06:05;;;;;;;4.90;1.60;;;21.90;91.20;;;;;;4965479;28;20158;-68
2022/06/02 14:08:46;;;;;;;3.55;1.80;;;22.60;89.90;;;;;;4981481;28;20117;-67
2022/06/02 14:11:43;;;;;;;6.53;1.70;;;22.00;87.90;;;;;;4965876;28;20055;-68
2022/06/02 14:14:28;;;;;;;5.32;1.50;;;21.30;88.50;;;;;;4962714;28;20050;-69
2022/06/02 14:16:54;;;;;;;6.57;1.60;;;21.30;88.90;;;;;;4968374;28;20038;-69
2022/06/02 14:19:54;;;;;;;6.45;2.00;;;21.60;89.20;;;;;;4969503;28;20038;-68
2022/06/02 14:22:43;;;;;;;3.95;1.52;;;22.00;87.50;;;;;;4963978;28;20082;-69
2022/06/02 14:25:38;;;;;;;2.92;1.67;;;22.30;88.50;;;;;;4967337;28;20079;-68
2022/06/02 14:28:22;;;;;;;3.20;1.65;;;22.40;85.10;;;;;;4965315;28;20105;-67
2022/06/02 14:30:50;;;;;;;4.47;1.73;;;22.10;87.60;;;;;;4971751;28;20062;-68
2022/06/02 14:33:35;;;;;;;6.20;1.40;;;22.30;84.70;;;;;;4970791;28;20558;-68
2022/06/02 14:36:21;;;;;;;3.97;1.50;;;21.80;86.60;;;;;;4971950;28;20121;-68